Time;durP1;ratioP1;P1;durP2;ratioP2;P2;SDS_P1;SDS_P2;PMS_P1;PMS_P2;Temp;Humidity;BMP_temperature;BMP_pressure;BME280_temperature;BME280_humidity;BME280_pressure;Samples;Min_cycle;Max_cycle;Signal;HPM_P1;HPM_P2
2023/10/25 00:01:50;;;;;;;3.88;2.50;;;;;;;;;;5008294;28;20034;-84
2023/10/25 00:04:16;;;;;;;4.55;2.08;;;;;;;;;;5007767;28;20024;-84
2023/10/25 00:06:42;;;;;;;4.82;2.58;;;;;;;;;;5032217;28;20021;-83
2023/10/25 00:09:08;;;;;;;5.22;2.38;;;;;;;;;;5032637;28;20039;-84
2023/10/25 00:11:34;;;;;;;4.13;2.28;;;;;;;;;;5032500;28;20096;-84
2023/10/25 00:14:03;;;;;;;3.47;1.90;;;;;;;;;;5031692;28;20129;-84
2023/10/25 00:16:29;;;;;;;3.45;1.95;;;;;;;;;;5001428;28;20034;-83
2023/10/25 00:18:55;;;;;;;4.82;1.98;;;;;;;;;;5031587;28;20029;-84
2023/10/25 00:21:21;;;;;;;2.88;1.90;;;;;;;;;;5013630;28;20112;-83
2023/10/25 00:23:47;;;;;;;3.97;2.28;;;;;;;;;;5032460;28;20026;-84
2023/10/25 00:26:13;;;;;;;2.50;2.30;;;;;;;;;;5032242;28;20040;-83
2023/10/25 00:28:39;;;;;;;2.58;1.95;;;;;;;;;;5035216;28;20033;-84
2023/10/25 00:31:05;;;;;;;4.40;2.47;;;;;;;;;;5052162;28;20032;-85
2023/10/25 00:33:32;;;;;;;2.83;1.88;;;;;;;;;;5037362;28;20056;-84
2023/10/25 00:35:58;;;;;;;2.92;1.95;;;;;;;;;;5035276;28;20021;-83
2023/10/25 00:38:24;;;;;;;7.75;2.28;;;;;;;;;;5044493;28;20408;-83
2023/10/25 00:40:50;;;;;;;2.63;1.95;;;;;;;;;;5037683;28;20111;-84
2023/10/25 00:43:19;;;;;;;7.25;2.30;;;;;;;;;;5029124;28;20379;-84
2023/10/25 00:46:03;;;;;;;3.13;2.15;;;;;;;;;;5029868;28;20025;-83
2023/10/25 00:48:30;;;;;;;2.10;1.90;;;;;;;;;;5033490;28;20029;-83
2023/10/25 00:50:57;;;;;;;2.63;2.10;;;;;;;;;;5015899;28;20076;-84
2023/10/25 00:53:24;;;;;;;2.45;2.22;;;;;;;;;;5031163;28;20022;-84
2023/10/25 00:55:52;;;;;;;2.95;2.17;;;;;;;;;;5032576;28;20494;-84
2023/10/25 00:58:18;;;;;;;2.22;1.80;;;;;;;;;;5046454;28;20021;-84
2023/10/25 01:00:45;;;;;;;2.85;1.85;;;;;;;;;;5046607;28;20014;-84
2023/10/25 01:03:12;;;;;;;2.93;2.10;;;;;;;;;;5038040;28;20025;-85
2023/10/25 01:05:38;;;;;;;2.30;1.77;;;;;;;;;;5018920;28;20043;-84
2023/10/25 01:08:04;;;;;;;6.72;2.00;;;;;;;;;;5037082;28;20540;-84
2023/10/25 01:10:30;;;;;;;3.05;1.65;;;;;;;;;;5030916;28;20108;-84
2023/10/25 01:12:56;;;;;;;3.13;2.20;;;;;;;;;;5044885;28;20450;-84
2023/10/25 01:15:25;;;;;;;3.38;1.67;;;;;;;;;;5033238;28;20056;-84
2023/10/25 01:17:52;;;;;;;3.25;2.08;;;;;;;;;;5007701;28;20026;-83
2023/10/25 01:20:19;;;;;;;3.60;2.40;;;;;;;;;;5030045;28;20025;-83
2023/10/25 01:22:47;;;;;;;4.88;2.30;;;;;;;;;;5011176;28;20060;-83
2023/10/25 01:25:13;;;;;;;5.93;1.95;;;;;;;;;;5011999;28;20061;-84
2023/10/25 01:27:39;;;;;;;3.30;1.80;;;;;;;;;;5010070;28;20485;-83
2023/10/25 01:30:05;;;;;;;2.50;1.65;;;;;;;;;;5031620;28;20045;-83
2023/10/25 01:32:31;;;;;;;2.70;1.80;;;;;;;;;;5008409;28;20026;-84
2023/10/25 01:34:57;;;;;;;3.33;1.75;;;;;;;;;;5037946;28;20032;-83
2023/10/25 01:37:23;;;;;;;4.68;2.20;;;;;;;;;;5019787;28;20489;-84
2023/10/25 01:39:50;;;;;;;3.50;1.95;;;;;;;;;;5039667;28;20040;-83
2023/10/25 01:42:16;;;;;;;6.88;2.55;;;;;;;;;;5051287;28;20568;-83
2023/10/25 01:44:42;;;;;;;3.38;1.92;;;;;;;;;;5053660;28;20064;-84
2023/10/25 01:47:08;;;;;;;2.80;1.92;;;;;;;;;;5055927;28;20062;-84
2023/10/25 01:49:34;;;;;;;4.75;1.95;;;;;;;;;;5049374;28;20391;-82
2023/10/25 01:52:02;;;;;;;4.82;2.30;;;;;;;;;;5012810;28;20025;-82
2023/10/25 01:54:28;;;;;;;3.28;2.20;;;;;;;;;;5027348;28;20029;-83
2023/10/25 01:56:54;;;;;;;7.43;3.58;;;;;;;;;;5026109;28;20104;-84
2023/10/25 01:59:20;;;;;;;3.80;2.38;;;;;;;;;;5032583;28;20390;-84
2023/10/25 02:01:46;;;;;;;4.88;2.40;;;;;;;;;;5025244;28;20029;-84
2023/10/25 02:04:12;;;;;;;4.15;2.15;;;;;;;;;;5034898;28;20402;-84
2023/10/25 02:06:38;;;;;;;3.97;2.20;;;;;;;;;;5035244;28;20026;-84
2023/10/25 02:09:04;;;;;;;3.45;1.90;;;;;;;;;;5045466;28;20025;-85
2023/10/25 02:11:31;;;;;;;3.33;2.30;;;;;;;;;;5030757;28;20389;-83
2023/10/25 02:13:57;;;;;;;4.63;2.45;;;;;;;;;;5034684;28;20474;-85
2023/10/25 02:16:23;;;;;;;4.63;2.80;;;;;;;;;;5033074;28;20100;-84
2023/10/25 02:18:49;;;;;;;4.93;1.98;;;;;;;;;;5026121;28;20058;-84
2023/10/25 02:21:16;;;;;;;6.35;2.95;;;;;;;;;;5022084;28;20018;-85
2023/10/25 02:23:42;;;;;;;5.97;2.80;;;;;;;;;;5036498;28;20021;-84
2023/10/25 02:26:09;;;;;;;;;;;;;;;;;;5032015;28;20151;-85
2023/10/25 02:28:35;;;;;;;3.05;2.40;;;;;;;;;;5034412;28;19909;-84
2023/10/25 02:31:01;;;;;;;4.20;2.22;;;;;;;;;;5034489;28;20036;-84
2023/10/25 02:33:27;;;;;;;5.93;2.67;;;;;;;;;;5034416;28;20386;-85
2023/10/25 02:35:54;;;;;;;4.43;2.67;;;;;;;;;;5058216;28;20071;-85
2023/10/25 02:38:20;;;;;;;8.02;2.97;;;;;;;;;;5036321;28;20037;-84
2023/10/25 02:40:46;;;;;;;4.50;2.72;;;;;;;;;;5031994;28;20014;-84
2023/10/25 02:43:12;;;;;;;5.63;2.25;;;;;;;;;;5013324;28;20029;-85
2023/10/25 02:45:38;;;;;;;4.30;2.70;;;;;;;;;;5039985;28;20033;-83
2023/10/25 02:48:11;;;;;;;4.53;2.30;;;;;;;;;;5042540;28;20049;-83
2023/10/25 02:50:37;;;;;;;2.83;2.15;;;;;;;;;;5024459;28;20029;-83
2023/10/25 02:53:03;;;;;;;5.45;2.65;;;;;;;;;;5053980;28;20114;-84
2023/10/25 02:55:30;;;;;;;5.45;3.20;;;;;;;;;;5027872;28;20063;-83
2023/10/25 02:57:56;;;;;;;7.70;3.40;;;;;;;;;;5029448;28;20045;-83
2023/10/25 03:00:22;;;;;;;3.15;2.22;;;;;;;;;;5034028;28;20033;-83
2023/10/25 03:02:48;;;;;;;5.50;2.85;;;;;;;;;;5036972;28;20429;-83
2023/10/25 03:05:14;;;;;;;3.55;2.33;;;;;;;;;;5044675;28;20104;-84
2023/10/25 03:07:40;;;;;;;4.15;2.70;;;;;;;;;;5032643;28;20076;-83
2023/10/25 03:10:07;;;;;;;2.88;2.22;;;;;;;;;;5015963;28;20449;-83
2023/10/25 03:12:33;;;;;;;4.55;2.47;;;;;;;;;;5033767;28;20108;-83
2023/10/25 03:14:59;;;;;;;2.80;2.47;;;;;;;;;;5029842;28;20099;-84
2023/10/25 03:17:28;;;;;;;3.35;2.50;;;;;;;;;;5033533;28;20037;-84
2023/10/25 03:19:54;;;;;;;7.50;3.17;;;;;;;;;;5033491;28;20024;-85
2023/10/25 03:22:20;;;;;;;3.38;2.33;;;;;;;;;;5034877;28;20065;-84
2023/10/25 03:24:46;;;;;;;4.68;2.85;;;;;;;;;;5037596;28;20049;-84
2023/10/25 03:27:12;;;;;;;4.07;2.50;;;;;;;;;;5035274;28;20029;-84
2023/10/25 03:29:38;;;;;;;3.30;2.38;;;;;;;;;;5048968;28;20024;-84
2023/10/25 03:32:05;;;;;;;4.85;2.10;;;;;;;;;;5031042;28;20033;-84
2023/10/25 03:34:31;;;;;;;2.63;2.20;;;;;;;;;;5033607;28;20022;-83
2023/10/25 03:36:57;;;;;;;4.32;3.03;;;;;;;;;;5015385;28;20029;-85
2023/10/25 03:39:23;;;;;;;8.32;3.10;;;;;;;;;;5034777;28;20079;-84
2023/10/25 03:41:49;;;;;;;4.22;2.38;;;;;;;;;;5039079;28;20025;-85
2023/10/25 03:44:15;;;;;;;7.15;3.90;;;;;;;;;;5030436;28;20021;-85
2023/10/25 03:46:41;;;;;;;3.63;2.60;;;;;;;;;;5033019;28;20025;-84
2023/10/25 03:49:07;;;;;;;5.00;2.65;;;;;;;;;;5031093;28;20030;-88
2023/10/25 03:51:33;;;;;;;6.53;2.67;;;;;;;;;;5005655;28;20034;-85
2023/10/25 03:54:00;;;;;;;3.90;2.58;;;;;;;;;;5046780;28;20033;-87
2023/10/25 03:56:26;;;;;;;4.22;2.03;;;;;;;;;;5013449;28;20378;-85
2023/10/25 03:58:52;;;;;;;7.40;3.30;;;;;;;;;;5013074;28;20507;-85
2023/10/25 04:01:18;;;;;;;3.58;2.60;;;;;;;;;;5004452;28;20033;-86
2023/10/25 04:03:44;;;;;;;5.03;2.60;;;;;;;;;;5025457;28;20021;-86
2023/10/25 04:06:10;;;;;;;3.55;2.97;;;;;;;;;;5055533;28;20068;-85
2023/10/25 04:08:36;;;;;;;5.40;2.88;;;;;;;;;;5061668;28;20025;-84
2023/10/25 04:11:03;;;;;;;4.63;3.08;;;;;;;;;;5044370;28;20105;-84
2023/10/25 04:13:29;;;;;;;3.83;2.53;;;;;;;;;;5016589;28;20563;-83
2023/10/25 04:15:56;;;;;;;5.10;2.83;;;;;;;;;;5036922;28;20094;-85
2023/10/25 04:18:22;;;;;;;5.22;3.03;;;;;;;;;;5014645;28;20102;-84
2023/10/25 04:20:48;;;;;;;5.18;3.17;;;;;;;;;;5026319;28;20013;-84
2023/10/25 04:23:14;;;;;;;5.20;3.50;;;;;;;;;;5037307;28;20021;-84
2023/10/25 04:25:40;;;;;;;4.35;2.40;;;;;;;;;;5036378;28;20500;-84
2023/10/25 04:28:06;;;;;;;6.65;3.65;;;;;;;;;;5031286;28;20049;-83
2023/10/25 04:30:33;;;;;;;7.35;3.65;;;;;;;;;;5019387;28;20029;-84
2023/10/25 04:32:59;;;;;;;4.72;2.33;;;;;;;;;;5040080;28;20036;-84
2023/10/25 04:35:25;;;;;;;5.40;2.90;;;;;;;;;;5036833;28;20045;-85
2023/10/25 04:37:55;;;;;;;9.00;3.70;;;;;;;;;;5038295;28;20017;-85
2023/10/25 04:40:22;;;;;;;7.07;3.78;;;;;;;;;;5037470;28;20378;-85
2023/10/25 04:42:51;;;;;;;5.60;3.00;;;;;;;;;;5029831;28;20025;-83
2023/10/25 04:45:18;;;;;;;10.27;3.45;;;;;;;;;;5021212;28;20025;-84
2023/10/25 04:47:44;;;;;;;5.30;3.05;;;;;;;;;;5037873;28;20032;-86
2023/10/25 04:50:10;;;;;;;5.72;3.33;;;;;;;;;;5011038;28;20060;-84
2023/10/25 04:52:36;;;;;;;5.82;3.90;;;;;;;;;;5036426;28;20099;-85
2023/10/25 04:55:02;;;;;;;7.50;4.20;;;;;;;;;;5021745;28;20021;-85
2023/10/25 04:57:28;;;;;;;9.93;5.35;;;;;;;;;;5034837;28;20028;-86
2023/10/25 04:59:54;;;;;;;7.22;3.85;;;;;;;;;;5026400;28;20033;-86
2023/10/25 05:02:20;;;;;;;4.80;3.03;;;;;;;;;;5039401;28;20163;-86
2023/10/25 05:04:47;;;;;;;8.88;3.38;;;;;;;;;;5030860;28;20108;-86
2023/10/25 05:07:13;;;;;;;6.85;3.35;;;;;;;;;;5047465;28;20029;-83
2023/10/25 05:09:39;;;;;;;5.45;3.03;;;;;;;;;;5020793;28;20029;-83
2023/10/25 05:12:07;;;;;;;5.18;2.88;;;;;;;;;;5050789;28;20034;-86
2023/10/25 05:14:33;;;;;;;6.93;3.15;;;;;;;;;;5030936;28;20056;-84
2023/10/25 05:17:00;;;;;;;8.48;3.53;;;;;;;;;;5021268;28;20406;-84
2023/10/25 05:19:26;;;;;;;4.70;3.20;;;;;;;;;;5022569;28;20093;-85
2023/10/25 05:21:53;;;;;;;7.35;3.50;;;;;;;;;;5039101;28;20028;-87
2023/10/25 05:24:19;;;;;;;4.72;2.83;;;;;;;;;;5021447;28;20069;-86
2023/10/25 05:26:46;;;;;;;8.13;2.60;;;;;;;;;;5034492;28;20040;-85
2023/10/25 05:29:12;;;;;;;6.38;3.55;;;;;;;;;;5019027;28;20030;-86
2023/10/25 05:31:41;;;;;;;5.60;3.63;;;;;;;;;;5022060;28;20111;-85
2023/10/25 05:34:08;;;;;;;8.18;3.63;;;;;;;;;;5019135;28;20026;-84
2023/10/25 05:36:34;;;;;;;7.53;3.85;;;;;;;;;;5030293;28;20026;-85
2023/10/25 05:39:03;;;;;;;6.97;3.75;;;;;;;;;;5004898;28;20033;-85
2023/10/25 05:41:30;;;;;;;5.68;3.00;;;;;;;;;;5023276;28;20030;-85
2023/10/25 05:44:02;;;;;;;7.70;4.30;;;;;;;;;;5021300;28;20060;-86
2023/10/25 05:46:28;;;;;;;7.78;4.40;;;;;;;;;;5004970;28;20068;-83
2023/10/25 05:48:54;;;;;;;7.80;3.70;;;;;;;;;;5014645;28;20053;-83
2023/10/25 05:51:20;;;;;;;7.38;3.03;;;;;;;;;;5020653;28;20056;-83
2023/10/25 05:53:47;;;;;;;8.73;3.10;;;;;;;;;;5005098;28;20034;-87
2023/10/25 05:56:13;;;;;;;4.78;3.67;;;;;;;;;;5039092;28;20083;-84
2023/10/25 05:58:40;;;;;;;3.78;3.00;;;;;;;;;;5033140;28;20076;-87
2023/10/25 06:01:09;;;;;;;4.78;3.25;;;;;;;;;;5032921;28;20037;-84
2023/10/25 06:03:35;;;;;;;8.32;3.55;;;;;;;;;;5047798;28;20025;-86
2023/10/25 06:06:01;;;;;;;6.30;3.58;;;;;;;;;;5047698;28;20077;-84
2023/10/25 06:08:28;;;;;;;7.55;3.97;;;;;;;;;;5053957;28;20036;-84
2023/10/25 06:10:55;;;;;;;5.70;3.88;;;;;;;;;;5038491;28;20037;-86
2023/10/25 06:13:22;;;;;;;8.57;3.42;;;;;;;;;;5034874;28;20041;-85
2023/10/25 06:15:48;;;;;;;8.90;3.63;;;;;;;;;;5034705;28;20045;-86
2023/10/25 06:18:14;;;;;;;6.18;4.45;;;;;;;;;;5030573;28;20014;-83
2023/10/25 06:20:40;;;;;;;10.30;4.05;;;;;;;;;;5025991;28;20029;-84
2023/10/25 06:23:06;;;;;;;7.15;3.78;;;;;;;;;;5034165;28;20022;-84
2023/10/25 06:25:32;;;;;;;7.65;3.60;;;;;;;;;;5016312;28;20030;-84
2023/10/25 06:27:59;;;;;;;4.85;3.63;;;;;;;;;;5030840;28;20025;-84
2023/10/25 06:30:27;;;;;;;4.93;3.43;;;;;;;;;;5031717;28;20072;-86
2023/10/25 06:32:53;;;;;;;12.07;5.68;;;;;;;;;;5028297;28;20053;-85
2023/10/25 06:35:19;;;;;;;6.60;4.65;;;;;;;;;;5013778;28;20026;-84
2023/10/25 06:37:45;;;;;;;4.43;3.42;;;;;;;;;;5038157;28;20108;-85
2023/10/25 06:40:13;;;;;;;7.68;4.38;;;;;;;;;;5039834;28;20052;-84
2023/10/25 06:42:39;;;;;;;;;;;;;;;;;;5047868;28;20041;-85
2023/10/25 06:45:06;;;;;;;7.13;3.35;;;;;;;;;;5048456;28;19913;-85
2023/10/25 06:47:32;;;;;;;4.15;3.17;;;;;;;;;;5050119;28;20438;-85
2023/10/25 06:49:58;;;;;;;6.95;3.78;;;;;;;;;;5025026;28;20080;-84
2023/10/25 06:52:24;;;;;;;6.75;4.32;;;;;;;;;;5030638;28;20083;-85
2023/10/25 06:54:51;;;;;;;6.15;2.72;;;;;;;;;;5016258;28;20502;-85
2023/10/25 06:57:17;;;;;;;5.03;3.08;;;;;;;;;;5021387;28;20460;-86
2023/10/25 06:59:43;;;;;;;6.50;3.42;;;;;;;;;;5034454;28;20378;-85
2023/10/25 07:02:36;;;;;;;12.35;4.15;;;;;;;;;;5045904;28;20024;-85
2023/10/25 07:05:09;;;;;;;7.40;3.80;;;;;;;;;;5021535;28;20044;-85
2023/10/25 07:07:35;;;;;;;5.95;3.78;;;;;;;;;;5033651;28;20060;-85
2023/10/25 07:10:01;;;;;;;8.45;4.03;;;;;;;;;;5040842;28;20076;-85
2023/10/25 07:12:27;;;;;;;7.95;3.58;;;;;;;;;;5036099;28;20097;-85
2023/10/25 07:14:54;;;;;;;7.13;4.18;;;;;;;;;;5034936;28;20037;-85
2023/10/25 07:17:20;;;;;;;3.00;2.70;;;;;;;;;;5022694;28;20541;-85
2023/10/25 07:19:47;;;;;;;5.72;3.30;;;;;;;;;;5035820;28;20033;-85
2023/10/25 07:22:13;;;;;;;5.60;3.17;;;;;;;;;;5025034;28;20024;-86
2023/10/25 07:24:39;;;;;;;10.57;4.43;;;;;;;;;;5010904;28;20478;-85
2023/10/25 07:27:05;;;;;;;5.97;3.67;;;;;;;;;;5009033;28;20026;-86
2023/10/25 07:29:31;;;;;;;6.60;3.50;;;;;;;;;;5015842;28;20030;-86
2023/10/25 07:31:57;;;;;;;9.18;3.20;;;;;;;;;;5032306;28;20028;-85
2023/10/25 07:34:23;;;;;;;8.60;3.25;;;;;;;;;;5044629;28;20025;-85
2023/10/25 07:36:49;;;;;;;5.20;2.83;;;;;;;;;;5035701;28;20021;-85
2023/10/25 07:39:16;;;;;;;10.07;4.63;;;;;;;;;;5053288;28;20033;-85
2023/10/25 07:41:42;;;;;;;8.30;3.65;;;;;;;;;;5035202;28;20017;-85
2023/10/25 07:44:08;;;;;;;6.53;3.28;;;;;;;;;;5033110;28;20030;-84
2023/10/25 07:46:34;;;;;;;3.78;2.63;;;;;;;;;;5020284;28;20044;-85
2023/10/25 07:49:00;;;;;;;3.72;2.83;;;;;;;;;;5034161;28;20105;-86
2023/10/25 07:51:26;;;;;;;15.13;3.90;;;;;;;;;;5043309;28;20021;-84
2023/10/25 07:53:52;;;;;;;4.68;2.92;;;;;;;;;;5050415;28;20018;-86
2023/10/25 07:56:18;;;;;;;4.85;3.40;;;;;;;;;;5028840;28;20029;-85
2023/10/25 07:58:45;;;;;;;5.85;3.53;;;;;;;;;;5025370;28;20028;-86
2023/10/25 08:01:12;;;;;;;4.10;2.58;;;;;;;;;;5036613;28;20032;-86
2023/10/25 08:03:38;;;;;;;4.25;2.50;;;;;;;;;;5016882;28;20108;-85
2023/10/25 08:06:05;;;;;;;5.53;2.83;;;;;;;;;;5036800;28;20029;-87
2023/10/25 08:08:31;;;;;;;5.93;3.03;;;;;;;;;;5040840;28;20020;-85
2023/10/25 08:11:01;;;;;;;4.30;2.33;;;;;;;;;;5007488;28;20456;-86
2023/10/25 08:13:27;;;;;;;3.67;2.70;;;;;;;;;;5040005;28;20099;-85
2023/10/25 08:15:57;;;;;;;4.35;3.00;;;;;;;;;;5062594;28;20045;-85
2023/10/25 08:18:23;;;;;;;5.40;2.75;;;;;;;;;;5057063;28;20071;-85
2023/10/25 08:20:49;;;;;;;5.07;3.05;;;;;;;;;;5032275;28;20069;-86
2023/10/25 08:23:15;;;;;;;7.78;2.72;;;;;;;;;;5034805;28;20020;-85
2023/10/25 08:25:42;;;;;;;3.50;2.58;;;;;;;;;;5033885;28;20367;-86
2023/10/25 08:28:08;;;;;;;5.88;2.92;;;;;;;;;;5032788;28;20028;-86
2023/10/25 08:30:35;;;;;;;8.20;3.75;;;;;;;;;;5032713;28;20425;-85
2023/10/25 08:33:01;;;;;;;5.70;3.00;;;;;;;;;;5019224;28;20052;-85
2023/10/25 08:35:27;;;;;;;3.40;2.75;;;;;;;;;;5014420;28;20025;-85
2023/10/25 08:37:53;;;;;;;8.13;3.30;;;;;;;;;;5022774;28;20125;-86
2023/10/25 08:40:19;;;;;;;9.23;3.67;;;;;;;;;;5028098;28;20079;-85
2023/10/25 08:42:45;;;;;;;11.57;6.53;;;;;;;;;;5039539;28;20101;-86
2023/10/25 08:45:14;;;;;;;7.60;3.03;;;;;;;;;;5025119;28;20038;-85
2023/10/25 08:47:41;;;;;;;4.53;2.78;;;;;;;;;;5039115;28;20085;-86
2023/10/25 08:50:07;;;;;;;5.53;3.40;;;;;;;;;;5036405;28;20029;-85
2023/10/25 08:52:36;;;;;;;4.95;3.33;;;;;;;;;;5049460;28;20028;-86
2023/10/25 08:55:03;;;;;;;4.78;3.05;;;;;;;;;;5052004;28;20032;-86
2023/10/25 08:57:30;;;;;;;6.77;3.97;;;;;;;;;;5019130;28;20030;-85
2023/10/25 08:59:56;;;;;;;6.03;4.30;;;;;;;;;;5033417;28;20423;-85
2023/10/25 09:02:22;;;;;;;8.05;3.92;;;;;;;;;;5032910;28;20021;-84
2023/10/25 09:04:58;;;;;;;4.97;3.40;;;;;;;;;;5014619;28;20120;-84
2023/10/25 09:07:29;;;;;;;6.82;3.72;;;;;;;;;;5032590;28;20053;-85
2023/10/25 09:09:55;;;;;;;11.13;3.95;;;;;;;;;;5033791;28;20033;-85
2023/10/25 09:12:21;;;;;;;9.05;4.38;;;;;;;;;;5016569;28;20030;-84
2023/10/25 09:14:49;;;;;;;12.32;4.82;;;;;;;;;;5029535;28;20121;-85
2023/10/25 09:17:15;;;;;;;9.25;4.88;;;;;;;;;;5022777;28;20026;-85
2023/10/25 09:19:45;;;;;;;5.13;3.70;;;;;;;;;;5018451;28;20116;-86
2023/10/25 09:22:30;;;;;;;5.85;3.17;;;;;;;;;;5036478;28;20034;-85
2023/10/25 09:24:59;;;;;;;5.20;3.67;;;;;;;;;;5037751;28;20444;-85
2023/10/25 09:27:26;;;;;;;5.80;3.38;;;;;;;;;;5027998;28;20071;-85
2023/10/25 09:29:53;;;;;;;6.57;3.80;;;;;;;;;;5049348;28;20052;-85
2023/10/25 09:32:20;;;;;;;4.85;3.22;;;;;;;;;;5035799;28;20113;-86
2023/10/25 09:34:46;;;;;;;9.27;4.18;;;;;;;;;;5037092;28;20487;-86
2023/10/25 09:37:13;;;;;;;9.13;4.18;;;;;;;;;;5036071;28;20029;-86
2023/10/25 09:39:39;;;;;;;6.35;4.07;;;;;;;;;;5057702;28;20025;-85
2023/10/25 09:42:15;;;;;;;6.32;4.18;;;;;;;;;;5037058;28;20040;-86
2023/10/25 09:44:45;;;;;;;5.30;3.50;;;;;;;;;;5020470;28;20082;-85
2023/10/25 09:47:12;;;;;;;8.10;3.38;;;;;;;;;;5053191;28;20029;-86
2023/10/25 09:49:42;;;;;;;6.97;4.32;;;;;;;;;;5041427;28;20386;-85
2023/10/25 09:52:28;;;;;;;8.57;4.13;;;;;;;;;;5028990;28;20116;-86
2023/10/25 09:55:07;;;;;;;7.88;4.40;;;;;;;;;;5034961;28;20022;-86
2023/10/25 09:57:33;;;;;;;6.80;4.05;;;;;;;;;;5029657;28;20104;-86
2023/10/25 09:59:59;;;;;;;4.28;3.17;;;;;;;;;;5035492;28;20036;-86
2023/10/25 10:02:44;;;;;;;4.43;2.90;;;;;;;;;;5035334;28;20030;-85
2023/10/25 10:05:12;;;;;;;5.28;3.67;;;;;;;;;;5024058;28;20037;-85
2023/10/25 10:07:46;;;;;;;6.05;3.92;;;;;;;;;;5017539;28;20025;-85
2023/10/25 10:10:12;;;;;;;10.27;4.03;;;;;;;;;;5035408;28;20563;-86
2023/10/25 10:12:38;;;;;;;5.72;3.45;;;;;;;;;;5034847;28;20049;-86
2023/10/25 10:15:05;;;;;;;11.60;4.82;;;;;;;;;;5039182;28;20052;-86
2023/10/25 10:17:36;;;;;;;7.10;4.07;;;;;;;;;;5043690;28;20025;-86
2023/10/25 10:20:04;;;;;;;8.13;4.05;;;;;;;;;;5048800;28;20022;-86
2023/10/25 10:22:31;;;;;;;4.28;3.15;;;;;;;;;;5034635;28;20486;-85
2023/10/25 10:25:00;;;;;;;4.38;3.35;;;;;;;;;;5018575;28;20499;-88
2023/10/25 10:27:27;;;;;;;11.82;5.38;;;;;;;;;;5036522;28;20037;-86
2023/10/25 10:29:53;;;;;;;30.65;5.65;;;;;;;;;;5032466;28;20026;-87
2023/10/25 10:32:19;;;;;;;12.35;4.28;;;;;;;;;;5013983;28;20034;-84
2023/10/25 10:34:54;;;;;;;12.20;4.30;;;;;;;;;;5028845;28;20036;-86
2023/10/25 10:37:22;;;;;;;11.55;4.07;;;;;;;;;;5033998;28;20024;-85
2023/10/25 10:40:03;;;;;;;5.35;3.17;;;;;;;;;;5034382;28;20060;-86
2023/10/25 10:42:33;;;;;;;10.52;4.28;;;;;;;;;;5022585;28;20126;-86
2023/10/25 10:45:00;;;;;;;4.03;2.80;;;;;;;;;;5028852;28;20033;-85
2023/10/25 10:47:33;;;;;;;8.40;3.80;;;;;;;;;;5016338;28;20422;-84
2023/10/25 10:50:02;;;;;;;4.93;3.50;;;;;;;;;;5024541;28;20061;-86
2023/10/25 10:52:28;;;;;;;8.15;3.20;;;;;;;;;;5029911;28;20037;-85
2023/10/25 10:54:54;;;;;;;6.40;3.38;;;;;;;;;;5034507;28;20076;-85
2023/10/25 10:57:21;;;;;;;7.07;3.72;;;;;;;;;;5036903;28;20036;-86
2023/10/25 10:59:47;;;;;;;6.00;4.18;;;;;;;;;;5038814;28;20022;-85
2023/10/25 11:02:13;;;;;;;5.82;3.75;;;;;;;;;;5021465;28;20097;-86
2023/10/25 11:04:43;;;;;;;9.53;3.50;;;;;;;;;;5033599;28;20024;-86
2023/10/25 11:07:09;;;;;;;7.22;4.00;;;;;;;;;;5025831;28;20030;-86
2023/10/25 11:09:35;;;;;;;11.75;4.60;;;;;;;;;;5048351;28;20832;-85
2023/10/25 11:12:12;;;;;;;6.28;3.78;;;;;;;;;;5035311;28;20036;-87
2023/10/25 11:14:42;;;;;;;12.60;4.38;;;;;;;;;;5036922;28;20395;-86
2023/10/25 11:17:08;;;;;;;5.20;3.58;;;;;;;;;;5037414;28;20081;-86
2023/10/25 11:19:34;;;;;;;8.65;3.95;;;;;;;;;;5040419;28;20026;-85
2023/10/25 11:22:01;;;;;;;9.18;3.47;;;;;;;;;;5042884;28;20036;-86
2023/10/25 11:24:27;;;;;;;8.02;4.10;;;;;;;;;;5037131;28;20064;-86
2023/10/25 11:26:53;;;;;;;7.65;3.75;;;;;;;;;;5066464;28;20030;-86
2023/10/25 11:29:20;;;;;;;7.65;5.00;;;;;;;;;;5030790;28;20163;-85
2023/10/25 11:31:50;;;;;;;6.83;4.27;;;;;;;;;;5027007;28;20020;-85
2023/10/25 11:34:23;;;;;;;6.47;3.45;;;;;;;;;;5016686;28;20081;-87
2023/10/25 11:36:49;;;;;;;9.65;3.83;;;;;;;;;;5031114;28;20022;-86
2023/10/25 11:39:16;;;;;;;8.40;4.35;;;;;;;;;;5035626;28;20391;-84
2023/10/25 11:41:42;;;;;;;6.85;3.83;;;;;;;;;;5034341;28;20097;-84
2023/10/25 11:44:08;;;;;;;5.70;3.42;;;;;;;;;;5042386;28;20035;-84
2023/10/25 11:46:36;;;;;;;3.58;3.00;;;;;;;;;;5040352;28;20060;-85
2023/10/25 11:49:03;;;;;;;5.15;3.58;;;;;;;;;;5033166;28;20086;-85
2023/10/25 11:51:29;;;;;;;12.57;4.10;;;;;;;;;;5026353;28;20080;-85
2023/10/25 11:53:55;;;;;;;6.32;3.55;;;;;;;;;;5027476;28;20049;-84
2023/10/25 11:56:22;;;;;;;7.80;3.67;;;;;;;;;;5032920;28;20064;-85
2023/10/25 11:58:48;;;;;;;7.32;4.20;;;;;;;;;;5032953;28;20018;-86
2023/10/25 12:01:14;;;;;;;6.38;3.85;;;;;;;;;;5033081;28;20481;-85
2023/10/25 12:03:41;;;;;;;5.90;4.07;;;;;;;;;;5033669;28;20025;-86
2023/10/25 12:06:07;;;;;;;7.03;3.90;;;;;;;;;;5032961;28;20034;-85
2023/10/25 12:08:33;;;;;;;6.35;3.88;;;;;;;;;;5032091;28;20026;-85
2023/10/25 12:10:59;;;;;;;6.55;4.00;;;;;;;;;;5032720;28;20037;-84
2023/10/25 12:13:25;;;;;;;8.00;3.40;;;;;;;;;;5015560;28;20025;-85
2023/10/25 12:15:51;;;;;;;6.50;3.80;;;;;;;;;;5032406;28;20130;-85
2023/10/25 12:18:17;;;;;;;8.93;3.58;;;;;;;;;;5032537;28;20103;-85
2023/10/25 12:20:44;;;;;;;7.00;3.08;;;;;;;;;;5032576;28;20025;-84
2023/10/25 12:23:10;;;;;;;5.05;3.17;;;;;;;;;;5029380;28;20033;-85
2023/10/25 12:25:37;;;;;;;7.13;4.65;;;;;;;;;;5033250;28;20033;-85
2023/10/25 12:28:04;;;;;;;8.05;4.15;;;;;;;;;;5032907;28;20028;-84
2023/10/25 12:30:30;;;;;;;7.97;4.18;;;;;;;;;;5010145;28;20078;-85
2023/10/25 12:32:57;;;;;;;8.50;3.65;;;;;;;;;;5032862;28;20096;-85
2023/10/25 12:35:23;;;;;;;13.85;4.78;;;;;;;;;;5033524;28;20039;-86
2023/10/25 12:37:49;;;;;;;6.60;3.42;;;;;;;;;;5032386;28;20033;-85
2023/10/25 12:40:16;;;;;;;12.25;4.47;;;;;;;;;;5028273;28;20025;-85
2023/10/25 12:42:42;;;;;;;7.03;3.30;;;;;;;;;;5042050;28;20017;-85
2023/10/25 12:45:08;;;;;;;4.60;3.10;;;;;;;;;;5039840;28;20387;-83
2023/10/25 12:47:35;;;;;;;12.35;3.78;;;;;;;;;;5045095;28;20503;-85
2023/10/25 12:50:01;;;;;;;7.60;3.42;;;;;;;;;;5011214;28;20116;-84
2023/10/25 12:52:27;;;;;;;4.63;2.83;;;;;;;;;;5028437;28;20411;-85
2023/10/25 12:54:55;;;;;;;9.65;5.25;;;;;;;;;;5029494;28;20062;-85
2023/10/25 12:57:20;;;;;;;;;;;;;;;;;;5019719;28;20026;-83
2023/10/25 12:59:46;;;;;;;7.93;2.90;;;;;;;;;;5043938;28;20301;-84
2023/10/25 13:02:13;;;;;;;6.65;3.78;;;;;;;;;;5028583;28;20021;-85
2023/10/25 13:04:39;;;;;;;7.43;3.63;;;;;;;;;;5050079;28;20112;-85
2023/10/25 13:07:05;;;;;;;5.28;3.15;;;;;;;;;;5036856;28;20097;-84
2023/10/25 13:09:32;;;;;;;7.37;3.03;;;;;;;;;;5045714;28;20026;-85
2023/10/25 13:11:58;;;;;;;13.82;4.07;;;;;;;;;;5048306;28;20032;-85
2023/10/25 13:14:24;;;;;;;7.20;3.33;;;;;;;;;;5033544;28;20045;-86
2023/10/25 13:16:50;;;;;;;8.13;3.70;;;;;;;;;;5050190;28;20787;-86
2023/10/25 13:19:16;;;;;;;6.80;3.25;;;;;;;;;;5018673;28;20112;-84
2023/10/25 13:21:43;;;;;;;6.55;3.85;;;;;;;;;;5022113;28;20025;-85
2023/10/25 13:24:09;;;;;;;7.20;3.47;;;;;;;;;;5045459;28;20051;-84
2023/10/25 13:26:36;;;;;;;6.68;3.67;;;;;;;;;;5039203;28;20352;-85
2023/10/25 13:29:02;;;;;;;10.65;4.63;;;;;;;;;;5034616;28;20026;-87
2023/10/25 13:31:28;;;;;;;9.93;4.70;;;;;;;;;;5049565;28;20029;-85
2023/10/25 13:33:55;;;;;;;4.28;2.97;;;;;;;;;;5035825;28;20021;-85
2023/10/25 13:36:21;;;;;;;8.75;3.95;;;;;;;;;;5018081;28;20116;-86
2023/10/25 13:38:47;;;;;;;13.00;4.50;;;;;;;;;;5016831;28;20025;-86
2023/10/25 13:41:13;;;;;;;5.80;3.55;;;;;;;;;;5038764;28;20021;-85
2023/10/25 13:43:39;;;;;;;6.60;3.50;;;;;;;;;;5037965;28;20108;-86
2023/10/25 13:46:09;;;;;;;6.85;3.10;;;;;;;;;;5034740;28;20041;-85
2023/10/25 13:48:35;;;;;;;5.60;3.13;;;;;;;;;;5036883;28;20025;-85
2023/10/25 13:51:01;;;;;;;11.35;3.38;;;;;;;;;;5009894;28;20179;-86
2023/10/25 13:53:27;;;;;;;4.22;2.90;;;;;;;;;;5049320;28;20037;-86
2023/10/25 13:55:53;;;;;;;6.30;3.65;;;;;;;;;;5040779;28;20379;-86
2023/10/25 13:58:19;;;;;;;6.32;3.53;;;;;;;;;;5037620;28;20487;-86
2023/10/25 14:00:45;;;;;;;6.80;3.33;;;;;;;;;;5035828;28;20036;-86
2023/10/25 14:03:12;;;;;;;6.97;4.05;;;;;;;;;;5023139;28;20414;-87
2023/10/25 14:05:42;;;;;;;6.82;3.92;;;;;;;;;;5020302;28;20225;-85
2023/10/25 14:08:09;;;;;;;7.00;3.20;;;;;;;;;;5047054;28;20021;-85
2023/10/25 14:10:47;;;;;;;8.38;3.38;;;;;;;;;;5032426;28;20092;-86
2023/10/25 14:13:14;;;;;;;3.60;3.20;;;;;;;;;;5030120;28;20470;-86
2023/10/25 14:15:40;;;;;;;5.82;3.50;;;;;;;;;;5029065;28;20553;-86
2023/10/25 14:18:12;;;;;;;6.43;2.97;;;;;;;;;;5033211;28;20029;-86
2023/10/25 14:20:39;;;;;;;5.65;3.13;;;;;;;;;;5036230;28;20439;-85
2023/10/25 14:23:06;;;;;;;7.87;3.13;;;;;;;;;;5042035;28;20041;-86
2023/10/25 14:25:37;;;;;;;4.28;2.67;;;;;;;;;;5047727;28;20281;-87
2023/10/25 14:28:03;;;;;;;7.63;3.70;;;;;;;;;;5054118;28;20494;-85
2023/10/25 14:30:29;;;;;;;5.22;3.20;;;;;;;;;;5035414;28;20022;-86
2023/10/25 14:32:56;;;;;;;5.88;3.55;;;;;;;;;;5035032;28;20100;-86
2023/10/25 14:35:22;;;;;;;15.50;7.15;;;;;;;;;;5031145;28;20407;-85
2023/10/25 14:37:50;;;;;;;5.45;3.95;;;;;;;;;;5027259;28;20461;-85
2023/10/25 14:40:18;;;;;;;8.82;3.97;;;;;;;;;;5039005;28;20029;-85
2023/10/25 14:42:44;;;;;;;8.52;3.80;;;;;;;;;;5054543;28;20020;-86